Time;durP1;ratioP1;P1;durP2;ratioP2;P2;SDS_P1;SDS_P2;PMS_P1;PMS_P2;Temp;Humidity;BMP_temperature;BMP_pressure;BME280_temperature;BME280_humidity;BME280_pressure;Samples;Min_cycle;Max_cycle;Signal;HPM_P1;HPM_P2
2022/07/11 00:00:15;;;;;;;3.63;2.40;;;;;;;10.62;79.00;95563.50;1766766;81;21088;-65
2022/07/11 00:02:43;;;;;;;3.63;2.27;;;;;;;10.59;78.75;95562.25;1766888;81;21064;-65
2022/07/11 00:05:10;;;;;;;2.62;2.20;;;;;;;10.55;78.73;95562.73;1767166;81;20984;-65
2022/07/11 00:07:38;;;;;;;2.87;2.23;;;;;;;10.54;79.06;95568.06;1766843;81;21037;-65
2022/07/11 00:10:06;;;;;;;2.93;2.40;;;;;;;10.54;78.55;95567.61;1767170;81;21506;-65
2022/07/11 00:12:33;;;;;;;3.03;2.37;;;;;;;10.55;78.83;95562.73;1766943;81;20985;-65
2022/07/11 00:15:00;;;;;;;3.80;2.40;;;;;;;10.52;78.27;95568.08;1767204;81;21043;-65
2022/07/11 00:17:27;;;;;;;3.43;2.40;;;;;;;10.50;79.78;95565.91;1767190;81;21052;-65
2022/07/11 00:19:54;;;;;;;3.27;2.10;;;;;;;10.47;79.32;95567.30;1766829;81;21073;-65
2022/07/11 00:22:21;;;;;;;3.20;2.20;;;;;;;10.35;78.78;95568.38;1767201;81;20997;-65
2022/07/11 00:24:48;;;;;;;2.53;1.93;;;;;;;10.23;79.65;95565.06;1766883;81;21009;-65
2022/07/11 00:27:15;;;;;;;2.87;2.23;;;;;;;10.26;80.25;95567.67;1766815;81;20997;-65
2022/07/11 00:29:42;;;;;;;2.60;2.17;;;;;;;10.29;79.99;95568.50;1767036;81;21013;-65
2022/07/11 00:32:08;;;;;;;2.30;2.00;;;;;;;10.35;79.67;95568.38;1766638;81;21044;-65
2022/07/11 00:34:35;;;;;;;1.80;1.70;;;;;;;10.39;79.52;95562.16;1767167;81;21061;-65
2022/07/11 00:37:03;;;;;;;1.67;1.57;;;;;;;10.37;79.65;95568.36;1767165;81;20984;-65
2022/07/11 00:39:29;;;;;;;2.83;1.60;;;;;;;10.39;79.84;95559.52;1767153;81;21056;-65
2022/07/11 00:41:56;;;;;;;1.90;1.80;;;;;;;10.45;79.61;95563.80;1766850;81;21044;-65
2022/07/11 00:44:23;;;;;;;1.80;1.70;;;;;;;10.48;79.21;95572.11;1767276;81;20997;-65
2022/07/11 00:46:50;;;;;;;3.07;2.10;;;;;;;10.49;79.11;95568.14;1766650;81;21017;-65
2022/07/11 00:49:16;;;;;;;2.50;1.80;;;;;;;10.47;78.51;95568.61;1767337;81;21032;-65
2022/07/11 00:51:43;;;;;;;1.73;1.63;;;;;;;10.42;78.73;95568.28;1767188;81;21001;-65
2022/07/11 00:54:11;;;;;;;1.80;1.50;;;;;;;10.42;78.39;95570.92;1766763;81;21025;-65
2022/07/11 00:56:38;;;;;;;2.20;1.47;;;;;;;10.39;78.12;95572.71;1767152;81;21004;-65
2022/07/11 00:59:05;;;;;;;1.60;1.50;;;;;;;10.30;78.33;95574.64;1767202;81;21060;-65
2022/07/11 01:01:34;;;;;;;2.13;1.50;;;;;;;10.28;78.15;95575.11;1767026;81;21482;-65
2022/07/11 01:04:02;;;;;;;1.50;1.40;;;;;;;10.25;78.52;95570.72;1767187;81;21482;-65
2022/07/11 01:06:30;;;;;;;1.75;1.60;;;;;;;10.18;78.31;95577.03;1767112;81;20974;-65
2022/07/11 01:08:57;;;;;;;2.37;1.70;;;;;;;10.18;78.76;95587.13;1767167;81;21550;-65
2022/07/11 01:11:24;;;;;;;2.63;1.70;;;;;;;10.22;78.41;95578.70;1767138;81;21029;-65
2022/07/11 01:13:51;;;;;;;3.93;1.90;;;;;;;10.18;78.35;95585.80;1766906;81;21063;-65
2022/07/11 01:16:22;;;;;;;2.17;1.90;;;;;;;10.23;78.62;95581.77;1767027;81;20961;-65
2022/07/11 01:18:54;;;;;;;3.07;2.00;;;;;;;10.23;78.12;95590.11;1767270;81;21012;-65
2022/07/11 01:21:35;;;;;;;3.43;1.97;;;;;;;10.22;78.22;95576.52;1767040;81;21032;-65
2022/07/11 01:24:04;;;;;;;1.77;1.67;;;;;;;10.18;78.68;95574.39;1766394;81;21052;-65
2022/07/11 01:26:32;;;;;;;2.03;1.90;;;;;;;10.08;78.47;95582.91;1767079;81;21031;-65
2022/07/11 01:29:11;;;;;;;3.53;1.63;;;;;;;10.04;78.53;95579.88;1767085;81;21012;-65
2022/07/11 01:31:43;;;;;;;1.97;1.80;;;;;;;10.04;78.68;95585.61;1767021;81;20996;-65
2022/07/11 01:34:11;;;;;;;2.20;2.00;;;;;;;9.94;79.58;95578.30;1767521;81;21555;-65
2022/07/11 01:36:37;;;;;;;2.60;1.70;;;;;;;9.88;79.98;95581.05;1766959;81;20989;-65
2022/07/11 01:39:04;;;;;;;1.90;1.70;;;;;;;9.84;79.59;95578.89;1766897;81;21531;-65
2022/07/11 01:41:31;;;;;;;4.50;1.60;;;;;;;9.86;79.49;95579.74;1767387;81;21020;-65
2022/07/11 01:43:58;;;;;;;1.63;1.53;;;;;;;9.88;79.62;95584.55;1767138;81;21467;-64
2022/07/11 01:46:25;;;;;;;2.80;1.40;;;;;;;9.82;80.23;95583.77;1767055;81;21017;-65
2022/07/11 01:48:51;;;;;;;1.83;1.50;;;;;;;9.84;80.65;95584.16;1767039;81;21064;-65
2022/07/11 01:51:18;;;;;;;6.33;2.30;;;;;;;9.89;81.04;95586.27;1767260;81;20965;-65
2022/07/11 01:53:45;;;;;;;5.47;2.07;;;;;;;9.93;81.09;95587.98;1766138;81;21092;-65
2022/07/11 01:56:12;;;;;;;2.00;1.43;;;;;;;10.02;80.98;95590.03;1763650;81;21037;-65
2022/07/11 01:58:39;;;;;;;1.70;1.60;;;;;;;10.05;80.67;95588.66;1764169;81;20965;-65
2022/07/11 02:01:05;;;;;;;2.70;1.70;;;;;;;10.01;80.36;95586.53;1764046;81;21005;-65
2022/07/11 02:03:32;;;;;;;2.83;1.90;;;;;;;10.06;80.32;95587.33;1763925;81;21555;-65
2022/07/11 02:05:59;;;;;;;1.53;1.40;;;;;;;10.03;80.21;95589.13;1764427;81;21043;-65
2022/07/11 02:08:27;;;;;;;1.50;1.30;;;;;;;10.05;80.00;95586.88;1764410;81;21056;-65
2022/07/11 02:10:54;;;;;;;2.67;1.40;;;;;;;10.04;79.59;95589.11;1764268;81;21527;-65
2022/07/11 02:13:25;;;;;;;3.00;1.20;;;;;;;9.91;80.24;95588.45;1763961;81;21079;-65
2022/07/11 02:15:53;;;;;;;2.90;1.60;;;;;;;9.90;79.67;95588.45;1764168;81;20992;-65
2022/07/11 02:18:20;;;;;;;3.30;1.60;;;;;;;9.83;80.43;95590.80;1763986;81;21041;-65
2022/07/11 02:20:50;;;;;;;2.70;1.33;;;;;;;9.79;80.60;95587.31;1764498;81;21029;-65
2022/07/11 02:23:19;;;;;;;1.70;1.30;;;;;;;9.82;80.22;95589.89;1764200;81;21495;-65
2022/07/11 02:25:46;;;;;;;3.83;1.40;;;;;;;9.86;80.57;95584.15;1764176;81;21000;-65
2022/07/11 02:28:14;;;;;;;5.63;1.77;;;;;;;9.92;81.16;95583.58;1764380;81;21009;-65
2022/07/11 02:30:43;;;;;;;3.07;2.10;;;;;;;10.05;81.43;95589.52;1763998;81;21052;-65
2022/07/11 02:33:19;;;;;;;2.97;2.10;;;;;;;10.12;80.84;95587.66;1764315;81;21057;-65
2022/07/11 02:35:39;;;;;;;2.63;1.73;;;;;;;10.15;81.10;95590.24;1761319;81;21004;-65
2022/07/11 02:38:06;;;;;;;1.80;1.50;;;;;;;10.16;81.04;95594.64;1763936;81;21383;-65
2022/07/11 02:40:33;;;;;;;2.23;1.90;;;;;;;10.21;80.80;95595.88;1764305;81;20989;-65
2022/07/11 02:42:59;;;;;;;2.00;1.60;;;;;;;10.34;80.70;95598.30;1764046;81;21487;-65
2022/07/11 02:45:26;;;;;;;2.73;1.90;;;;;;;10.39;80.47;95598.22;1764201;81;21847;-65
2022/07/11 02:47:53;;;;;;;3.47;2.50;;;;;;;10.42;80.99;95596.84;1764153;81;21012;-65
2022/07/11 02:50:19;;;;;;;4.53;2.63;;;;;;;10.40;81.00;95600.81;1764148;81;21534;-65
2022/07/11 02:52:46;;;;;;;3.87;2.73;;;;;;;10.45;81.02;95595.91;1764195;81;21067;-65
2022/07/11 02:55:15;;;;;;;4.50;2.47;;;;;;;10.46;80.81;95601.17;1764220;81;21016;-65
2022/07/11 02:57:42;;;;;;;3.57;2.40;;;;;;;10.50;81.46;95605.48;1764305;81;20973;-65
2022/07/11 03:00:14;;;;;;;2.40;2.10;;;;;;;10.52;80.63;95605.47;1763841;81;20997;-65
2022/07/11 03:02:40;;;;;;;4.42;2.30;;;;;;;10.51;80.46;95606.38;1764083;81;21021;-65
2022/07/11 03:05:08;;;;;;;2.52;2.30;;;;;;;10.46;80.60;95608.20;1764295;81;21012;-65
2022/07/11 03:07:35;;;;;;;3.40;2.70;;;;;;;10.46;80.73;95605.13;1764153;81;21472;-65
2022/07/11 03:10:01;;;;;;;2.73;2.13;;;;;;;10.48;80.64;95606.41;1764396;81;21028;-65
2022/07/11 03:12:28;;;;;;;2.63;2.40;;;;;;;10.54;80.64;95602.36;1764236;81;21064;-65
2022/07/11 03:14:55;;;;;;;3.13;2.60;;;;;;;10.57;80.91;95608.89;1764225;81;21449;-65
2022/07/11 03:17:22;;;;;;;3.10;2.80;;;;;;;10.59;80.72;95604.00;1763931;81;21017;-65
2022/07/11 03:19:48;;;;;;;3.07;2.10;;;;;;;10.63;80.77;95602.62;1764050;81;20997;-65
2022/07/11 03:22:16;;;;;;;2.53;2.30;;;;;;;10.68;80.54;95602.08;1764455;81;21052;-65
2022/07/11 03:24:43;;;;;;;3.80;2.20;;;;;;;10.68;80.31;95599.45;1764246;81;21454;-64
2022/07/11 03:27:10;;;;;;;3.02;2.10;;;;;;;10.72;80.60;95600.69;1764137;81;21013;-65
2022/07/11 03:29:37;;;;;;;3.00;2.00;;;;;;;10.77;80.08;95609.38;1764133;81;21045;-65
2022/07/11 03:32:05;;;;;;;3.05;2.00;;;;;;;10.81;80.22;95607.57;1764066;81;21024;-65
2022/07/11 03:34:32;;;;;;;2.12;1.90;;;;;;;10.93;80.47;95611.72;1764110;81;21475;-65
2022/07/11 03:36:59;;;;;;;2.58;1.90;;;;;;;10.97;80.32;95607.67;1764213;81;21493;-65
2022/07/11 03:39:25;;;;;;;2.72;1.90;;;;;;;11.02;80.13;95618.15;1764510;81;20953;-65
2022/07/11 03:41:53;;;;;;;4.42;1.90;;;;;;;11.08;79.53;95621.97;1763924;81;21021;-65
2022/07/11 03:44:20;;;;;;;2.87;1.55;;;;;;;11.14;79.29;95620.55;1764442;81;21017;-65
2022/07/11 03:46:47;;;;;;;2.58;1.35;;;;;;;11.26;79.12;95622.94;1763729;81;21072;-65
2022/07/11 03:49:14;;;;;;;3.75;1.00;;;;;;;11.31;78.15;95616.22;1764043;81;21017;-65
2022/07/11 03:51:41;;;;;;;3.90;2.17;;;;;;;11.41;77.22;95621.72;1763961;81;21093;-65
2022/07/11 03:54:08;;;;;;;1.60;1.27;;;;;;;11.55;77.69;95624.08;1764484;81;21451;-65
2022/07/11 03:56:35;;;;;;;2.17;1.20;;;;;;;11.69;77.49;95626.40;1767240;81;21008;-65
2022/07/11 03:59:01;;;;;;;2.87;1.42;;;;;;;11.88;77.64;95627.77;1767213;81;21001;-65
2022/07/11 04:01:28;;;;;;;3.12;1.87;;;;;;;12.10;77.04;95624.17;1767002;81;21024;-65
2022/07/11 04:03:55;;;;;;;2.50;1.62;;;;;;;12.25;76.69;95621.61;1767174;81;20953;-65
2022/07/11 04:06:21;;;;;;;2.10;1.90;;;;;;;12.39;76.41;95623.89;1767196;81;20965;-65
2022/07/11 04:08:48;;;;;;;3.05;1.70;;;;;;;12.43;74.74;95629.53;1766793;81;21016;-65
2022/07/11 04:11:15;;;;;;;2.70;1.62;;;;;;;12.45;74.80;95629.05;1766824;81;21013;-65
2022/07/11 04:13:42;;;;;;;3.27;1.82;;;;;;;12.47;74.60;95630.31;1767168;81;21032;-65
2022/07/11 04:16:09;;;;;;;2.80;1.47;;;;;;;12.41;74.71;95639.28;1766781;81;21041;-65
2022/07/11 04:18:35;;;;;;;3.72;1.42;;;;;;;12.31;74.72;95630.70;1767121;81;20957;-65
2022/07/11 04:21:02;;;;;;;2.55;1.57;;;;;;;12.31;74.58;95634.67;1767407;81;21053;-65
2022/07/11 04:23:30;;;;;;;2.95;1.37;;;;;;;12.30;74.27;95636.91;1766806;81;21721;-65
2022/07/11 04:25:56;;;;;;;4.30;1.12;;;;;;;12.29;74.01;95630.32;1767158;81;20981;-65
2022/07/11 04:28:23;;;;;;;1.77;1.50;;;;;;;12.22;72.24;95627.41;1734505;81;21486;-65
2022/07/11 04:30:50;;;;;;;1.70;1.60;;;;;;;12.26;73.12;95633.05;1766907;81;21508;-65
2022/07/11 04:33:17;;;;;;;2.92;1.20;;;;;;;12.24;74.12;95631.75;1766936;81;21298;-65
2022/07/11 04:35:43;;;;;;;2.50;1.37;;;;;;;12.22;72.98;95634.02;1767054;81;21518;-65
2022/07/11 04:38:10;;;;;;;2.45;1.10;;;;;;;12.27;73.01;95633.45;1767030;81;21028;-65
2022/07/11 04:40:37;;;;;;;2.33;0.90;;;;;;;12.32;72.24;95637.75;1767151;81;21068;-65
2022/07/11 04:43:04;;;;;;;2.12;1.32;;;;;;;12.37;71.23;95634.09;1767278;81;21040;-65
2022/07/11 04:45:31;;;;;;;4.95;1.20;;;;;;;12.43;71.03;95634.83;1766667;81;21124;-65
2022/07/11 04:48:00;;;;;;;3.95;1.05;;;;;;;12.51;72.26;95643.44;1766808;81;21554;-65
2022/07/11 04:50:26;;;;;;;2.37;1.10;;;;;;;12.58;71.91;95644.16;1767067;81;21035;-65
2022/07/11 04:52:53;;;;;;;1.70;1.17;;;;;;;12.65;71.99;95640.45;1766852;81;21017;-65
2022/07/11 04:55:20;;;;;;;2.12;1.47;;;;;;;12.72;72.26;95640.67;1766954;81;21012;-65
2022/07/11 04:57:46;;;;;;;2.90;1.30;;;;;;;12.78;72.47;95641.86;1767338;81;21004;-65
2022/07/11 05:00:14;;;;;;;6.37;1.30;;;;;;;12.86;72.12;95642.11;1767134;81;20965;-65
2022/07/11 05:02:41;;;;;;;5.00;1.40;;;;;;;12.87;72.05;95648.67;1766970;81;21546;-65
2022/07/11 05:05:08;;;;;;;9.48;1.57;;;;;;;12.87;72.09;95646.48;1766978;81;21016;-65
2022/07/11 05:07:35;;;;;;;2.02;1.20;;;;;;;12.88;71.99;95647.78;1767156;81;20961;-65
2022/07/11 05:10:04;;;;;;;5.33;2.65;;;;;;;12.93;71.14;95642.37;1766899;81;21001;-65
2022/07/11 05:12:31;;;;;;;6.58;1.32;;;;;;;12.98;71.10;95646.63;1766638;81;21044;-65
2022/07/11 05:15:01;;;;;;;4.22;1.35;;;;;;;13.09;70.72;95650.76;1766869;81;21538;-65
2022/07/11 05:17:28;;;;;;;3.05;1.62;;;;;;;13.19;70.70;95650.45;1767050;81;21032;-65
2022/07/11 05:19:55;;;;;;;2.52;1.70;;;;;;;13.31;70.64;95655.05;1767050;81;21009;-65
2022/07/11 05:22:22;;;;;;;3.58;1.60;;;;;;;13.33;69.21;95655.84;1767274;81;21013;-65
2022/07/11 05:24:49;;;;;;;2.80;1.50;;;;;;;13.25;68.43;95659.14;1767147;81;21031;-65
2022/07/11 05:27:15;;;;;;;3.33;1.37;;;;;;;13.19;69.21;95661.52;1766947;81;21510;-65
2022/07/11 05:29:42;;;;;;;3.58;1.62;;;;;;;13.17;68.41;95661.54;1767051;81;20993;-65
2022/07/11 05:32:10;;;;;;;3.27;1.60;;;;;;;13.16;69.21;95662.92;1766365;81;21013;-65
2022/07/11 05:34:37;;;;;;;5.67;1.75;;;;;;;13.18;69.02;95663.30;1766975;81;21035;-65
2022/07/11 05:37:05;;;;;;;3.37;1.72;;;;;;;13.18;68.88;95656.67;1767149;81;21013;-65
2022/07/11 05:39:31;;;;;;;5.05;2.10;;;;;;;13.19;69.35;95663.70;1767302;81;21486;-65
2022/07/11 05:41:59;;;;;;;3.87;1.55;;;;;;;13.21;69.51;95663.20;1767190;81;21510;-65
2022/07/11 05:44:27;;;;;;;2.12;1.52;;;;;;;13.25;69.28;95662.66;1767241;81;21486;-65
2022/07/11 05:47:02;;;;;;;3.35;1.57;;;;;;;13.32;68.83;95660.74;1767257;81;20973;-65
2022/07/11 05:49:31;;;;;;;2.83;1.70;;;;;;;13.35;68.85;95661.52;1767249;81;21043;-65
2022/07/11 05:51:58;;;;;;;7.92;2.00;;;;;;;13.45;68.79;95655.95;1767160;81;21502;-65
2022/07/11 05:54:24;;;;;;;3.20;2.00;;;;;;;13.56;68.04;95660.52;1767008;81;20997;-65
2022/07/11 05:56:51;;;;;;;2.90;1.70;;;;;;;13.55;67.12;95656.97;1766958;81;21024;-65
2022/07/11 05:59:18;;;;;;;3.17;1.22;;;;;;;13.49;66.59;95654.97;1767050;81;20985;-65
2022/07/11 06:01:45;;;;;;;5.15;1.42;;;;;;;13.40;66.54;95651.64;1767009;81;20989;-65
2022/07/11 06:04:12;;;;;;;1.98;1.30;;;;;;;13.36;66.69;95653.99;1767210;81;20993;-65
2022/07/11 06:06:39;;;;;;;3.20;1.30;;;;;;;13.35;66.34;95662.84;1767208;81;20981;-65
2022/07/11 06:09:06;;;;;;;2.55;1.22;;;;;;;13.32;66.16;95664.72;1767009;81;21060;-65
2022/07/11 06:11:33;;;;;;;3.45;1.17;;;;;;;13.26;65.60;95655.13;1767145;81;21016;-65
2022/07/11 06:14:00;;;;;;;9.10;1.07;;;;;;;13.23;64.91;95653.91;1767431;81;21019;-65
2022/07/11 06:16:27;;;;;;;6.53;1.10;;;;;;;13.28;65.53;95649.80;1766682;81;21056;-65
2022/07/11 06:18:53;;;;;;;5.83;1.00;;;;;;;13.49;65.29;95646.55;1766818;81;21044;-65
2022/07/11 06:21:21;;;;;;;14.00;1.20;;;;;;;13.80;64.26;95649.15;1767256;81;21005;-65
2022/07/11 06:23:48;;;;;;;14.58;1.50;;;;;;;14.13;64.02;95646.37;1766892;81;21056;-65
2022/07/11 06:26:15;;;;;;;4.53;1.30;;;;;;;14.43;62.96;95642.33;1766959;81;21100;-65
2022/07/11 06:28:42;;;;;;;7.37;1.45;;;;;;;14.40;60.81;95649.06;1767355;81;20992;-65
2022/07/11 06:31:09;;;;;;;9.88;2.10;;;;;;;14.40;61.61;95651.26;1766847;81;21072;-65
2022/07/11 06:33:36;;;;;;;10.65;1.67;;;;;;;14.40;62.07;95655.70;1767004;81;21470;-65
2022/07/11 06:36:04;;;;;;;5.95;2.10;;;;;;;14.46;61.29;95655.05;1767457;81;20989;-65
2022/07/11 06:38:31;;;;;;;5.53;1.22;;;;;;;14.47;60.64;95656.78;1766943;81;21065;-65
2022/07/11 06:40:58;;;;;;;7.25;1.47;;;;;;;14.60;60.98;95657.73;1767347;81;21008;-65
2022/07/11 06:43:25;;;;;;;3.27;1.20;;;;;;;14.62;61.29;95657.23;1767233;81;21011;-65
2022/07/11 06:45:52;;;;;;;4.67;1.30;;;;;;;14.60;60.98;95663.05;1767243;81;21534;-65
2022/07/11 06:48:20;;;;;;;7.37;1.45;;;;;;;14.60;61.61;95662.58;1766748;81;21017;-65
2022/07/11 06:50:48;;;;;;;3.62;1.35;;;;;;;14.63;61.28;95666.45;1767140;81;20988;-65
2022/07/11 06:53:15;;;;;;;7.83;1.40;;;;;;;14.56;60.66;95658.28;1767230;81;21045;-65
2022/07/11 06:55:42;;;;;;;6.10;1.50;;;;;;;14.55;61.46;95658.35;1765916;81;21482;-65
2022/07/11 06:58:08;;;;;;;3.55;1.30;;;;;;;14.52;60.82;95661.94;1764201;81;21005;-65
2022/07/11 07:00:35;;;;;;;3.08;1.35;;;;;;;14.50;60.92;95661.12;1764480;81;21017;-65
2022/07/11 07:03:02;;;;;;;4.45;1.65;;;;;;;14.47;60.50;95662.55;1764279;81;21001;-65
2022/07/11 07:05:28;;;;;;;4.17;1.50;;;;;;;14.43;60.84;95659.11;1763972;81;21021;-65
2022/07/11 07:07:55;;;;;;;5.22;1.72;;;;;;;14.41;60.93;95660.98;1763952;81;21092;-65
2022/07/11 07:10:22;;;;;;;3.02;1.52;;;;;;;14.47;61.38;95661.23;1764482;81;20985;-65
2022/07/11 07:12:49;;;;;;;5.95;1.17;;;;;;;14.57;61.41;95654.72;1764193;81;20989;-65
2022/07/11 07:15:15;;;;;;;5.62;1.30;;;;;;;14.71;60.90;95651.13;1764248;81;21036;-65
2022/07/11 07:17:42;;;;;;;1.15;0.95;;;;;;;15.03;59.86;95654.94;1763625;81;21083;-65
2022/07/11 07:20:11;;;;;;;1.82;1.10;;;;;;;15.25;58.30;95647.94;1764019;81;21478;-65
2022/07/11 07:22:38;;;;;;;3.98;1.10;;;;;;;15.38;57.10;95648.36;1764189;81;21052;-65
2022/07/11 07:25:08;;;;;;;1.95;1.00;;;;;;;15.42;56.34;95657.08;1764353;81;21001;-65
2022/07/11 07:27:35;;;;;;;1.67;1.30;;;;;;;15.38;55.43;95652.82;1764120;81;20981;-65
2022/07/11 07:30:02;;;;;;;1.90;0.95;;;;;;;15.39;55.89;95656.73;1764030;81;21020;-65
2022/07/11 07:32:29;;;;;;;3.45;1.10;;;;;;;15.41;55.77;95663.34;1763980;81;21004;-65
2022/07/11 07:34:55;;;;;;;2.72;1.17;;;;;;;15.61;55.96;95658.61;1764325;81;20997;-65
2022/07/11 07:37:22;;;;;;;4.58;1.50;;;;;;;15.93;54.81;95653.44;1764365;81;20977;-65
2022/07/11 07:39:49;;;;;;;5.25;1.22;;;;;;;16.25;53.62;95649.49;1764093;81;21057;-65
2022/07/11 07:42:16;;;;;;;2.27;0.95;;;;;;;16.57;53.54;95649.52;1764473;81;20965;-65
2022/07/11 07:44:42;;;;;;;3.10;0.90;;;;;;;16.83;52.53;95649.82;1764354;81;21036;-65
2022/07/11 07:47:09;;;;;;;5.10;1.07;;;;;;;17.06;52.57;95646.17;1763998;81;21064;-65
2022/07/11 07:49:35;;;;;;;1.77;1.02;;;;;;;17.25;51.46;95647.55;1764113;81;20965;-65
2022/07/11 07:52:03;;;;;;;2.80;1.20;;;;;;;17.43;49.83;95652.53;1764211;81;21459;-65
2022/07/11 07:54:30;;;;;;;3.12;1.00;;;;;;;17.59;49.29;95650.51;1763747;81;21037;-65
2022/07/11 07:56:57;;;;;;;1.32;0.78;;;;;;;17.82;50.69;95653.52;1766647;81;21506;-65
2022/07/11 07:59:24;;;;;;;2.75;1.00;;;;;;;18.01;48.83;95647.70;1767300;81;21004;-65
2022/07/11 08:01:52;;;;;;;2.02;0.88;;;;;;;18.15;47.70;95650.59;1766884;81;20977;-65
2022/07/11 08:04:19;;;;;;;3.72;0.93;;;;;;;18.34;46.52;95641.25;1766732;81;21021;-65
2022/07/11 08:06:46;;;;;;;3.20;1.00;;;;;;;18.60;46.70;95645.30;1766953;81;21455;-65
2022/07/11 08:09:13;;;;;;;1.57;0.88;;;;;;;18.73;45.61;95645.55;1767155;81;21479;-65
2022/07/11 08:11:39;;;;;;;7.22;1.10;;;;;;;18.98;45.69;95649.71;1767407;81;21044;-64
2022/07/11 08:14:09;;;;;;;1.42;0.82;;;;;;;19.16;44.26;95653.25;1766856;81;21080;-65
2022/07/11 08:16:37;;;;;;;1.07;0.88;;;;;;;19.37;45.66;95649.44;1767065;81;20961;-65
2022/07/11 08:19:05;;;;;;;3.17;1.10;;;;;;;19.51;44.13;95658.58;1767165;81;21032;-65
2022/07/11 08:21:33;;;;;;;2.47;0.80;;;;;;;19.66;44.68;95655.95;1766974;81;21004;-65
2022/07/11 08:24:02;;;;;;;2.98;0.80;;;;;;;19.93;42.86;95662.11;1766968;81;21072;-65
2022/07/11 08:26:29;;;;;;;1.65;1.00;;;;;;;20.14;43.14;95656.08;1766954;81;21538;-65
2022/07/11 08:28:56;;;;;;;2.05;0.90;;;;;;;20.38;42.53;95656.98;1766833;81;20981;-65
2022/07/11 08:31:25;;;;;;;4.05;0.98;;;;;;;20.54;41.34;95656.52;1767038;81;20986;-65
2022/07/11 08:33:52;;;;;;;5.08;0.85;;;;;;;20.66;41.51;95650.94;1766925;81;21025;-65
2022/07/11 08:36:20;;;;;;;0.82;0.70;;;;;;;20.37;40.62;95660.62;1766850;81;21056;-65
2022/07/11 08:39:55;;;;;;;0.93;0.80;;;;;;;20.16;40.25;95669.36;1767216;81;21043;-65
2022/07/11 08:42:24;;;;;;;1.67;0.90;;;;;;;20.42;40.37;95662.57;1767197;81;21048;-65
2022/07/11 08:44:51;;;;;;;3.87;0.90;;;;;;;20.87;39.61;95656.91;1766968;81;21001;-65
2022/07/11 08:47:19;;;;;;;3.25;0.90;;;;;;;21.00;38.72;95660.59;1766946;81;21036;-65
2022/07/11 08:53:15;;;;;;;1.90;1.00;;;;;;;20.35;40.01;95669.22;1753280;81;21017;-65
2022/07/11 08:55:43;;;;;;;2.20;0.90;;;;;;;19.96;41.24;95680.72;1766241;81;21089;-65
2022/07/11 08:58:11;;;;;;;3.52;1.00;;;;;;;19.75;41.44;95672.00;1763694;81;21013;-65
2022/07/11 09:00:38;;;;;;;1.32;0.98;;;;;;;19.78;42.13;95672.31;1764106;81;21019;-65
2022/07/11 09:03:07;;;;;;;1.30;0.98;;;;;;;19.81;41.68;95670.84;1763706;81;21052;-65
2022/07/11 09:05:36;;;;;;;1.57;1.20;;;;;;;19.99;41.27;95679.20;1759298;81;21460;-65
2022/07/11 09:08:04;;;;;;;1.47;1.00;;;;;;;20.14;41.73;95673.97;1763953;81;21041;-65
2022/07/11 09:10:31;;;;;;;2.10;1.10;;;;;;;20.01;40.91;95682.67;1764316;81;21443;-65
2022/07/11 09:13:08;;;;;;;1.72;1.17;;;;;;;19.59;41.74;95686.66;1764226;81;21081;-65
2022/07/11 09:15:39;;;;;;;1.72;1.10;;;;;;;19.19;42.57;95689.20;1763857;81;21037;-65
2022/07/11 09:18:32;;;;;;;1.50;1.05;;;;;;;18.92;43.62;95698.98;1764470;81;20989;-65
2022/07/11 09:26:51;;;;;;;1.40;1.10;;;;;;;18.28;44.53;95696.28;1764437;81;21000;-64
2022/07/11 09:29:27;;;;;;;3.65;0.90;;;;;;;18.23;44.57;95699.64;1764330;81;21036;-65
2022/07/11 09:31:54;;;;;;;5.35;1.50;;;;;;;18.22;44.34;95704.59;1764415;81;21487;-65
2022/07/11 09:34:26;;;;;;;0.95;0.90;;;;;;;18.65;45.06;95690.52;1764058;81;21032;-65
2022/07/11 09:36:54;;;;;;;5.55;1.20;;;;;;;19.38;43.75;95687.80;1764272;81;21041;-65
2022/07/11 09:39:25;;;;;;;1.32;1.00;;;;;;;19.38;42.07;95687.31;1764429;81;21518;-65
2022/07/11 09:41:53;;;;;;;1.47;1.17;;;;;;;19.19;42.39;95691.87;1764404;81;20993;-65
2022/07/11 09:44:27;;;;;;;2.90;1.30;;;;;;;18.94;42.55;95685.08;1764101;81;21018;-64
2022/07/11 09:46:56;;;;;;;1.00;0.95;;;;;;;18.74;43.49;95690.52;1764504;81;21013;-65
2022/07/11 09:49:36;;;;;;;2.52;1.20;;;;;;;18.64;44.75;95695.92;1764345;81;21005;-65
2022/07/11 09:52:13;;;;;;;0.93;0.90;;;;;;;18.68;45.08;95701.05;1755624;81;21518;-65
2022/07/11 09:54:56;;;;;;;2.70;1.20;;;;;;;18.73;44.62;95696.82;1764369;81;20974;-65
2022/07/11 09:57:39;;;;;;;1.00;0.90;;;;;;;18.81;44.55;95700.00;1762666;81;21049;-65
2022/07/11 10:00:24;;;;;;;2.67;1.30;;;;;;;18.81;43.48;95692.84;1764047;81;21056;-65
2022/07/11 10:02:55;;;;;;;4.28;1.82;;;;;;;18.90;43.77;95682.62;1764442;81;21013;-65
2022/07/11 10:05:22;;;;;;;1.92;1.20;;;;;;;19.09;44.18;95689.27;1759463;81;21487;-64
2022/07/11 10:07:49;;;;;;;2.75;0.90;;;;;;;19.27;43.25;95686.98;1764105;81;20989;-65
2022/07/11 10:10:17;;;;;;;1.65;1.10;;;;;;;19.42;42.52;95683.52;1764059;81;21067;-65
2022/07/11 10:12:48;;;;;;;2.35;0.98;;;;;;;19.59;42.67;95680.44;1764282;81;21546;-65
2022/07/11 10:15:37;;;;;;;2.90;1.17;;;;;;;19.73;42.81;95684.64;1763987;81;20993;-65
2022/07/11 10:18:17;;;;;;;1.20;1.10;;;;;;;19.79;41.78;95683.44;1764467;81;21494;-65
2022/07/11 10:20:53;;;;;;;1.67;0.85;;;;;;;19.87;42.14;95682.06;1764435;81;21009;-65
2022/07/11 10:23:58;;;;;;;2.00;1.10;;;;;;;19.72;41.24;95692.25;1764428;81;20965;-65
2022/07/11 10:26:42;;;;;;;1.30;0.90;;;;;;;19.82;42.08;95688.62;1764425;81;21017;-65
2022/07/11 10:29:35;;;;;;;1.72;1.02;;;;;;;19.91;41.86;95684.56;1764252;81;21001;-65
2022/07/11 10:32:11;;;;;;;;;;;;;;;19.94;41.26;95684.42;1766286;81;20977;-65
2022/07/11 10:34:39;;;;;;;3.95;1.15;;;;;;;19.74;41.20;95685.02;1732568;83;20144;-65
2022/07/11 10:37:08;;;;;;;2.72;1.00;;;;;;;19.68;41.62;95682.67;1764033;81;21001;-65
2022/07/11 10:39:36;;;;;;;1.42;1.15;;;;;;;19.82;41.99;95687.28;1764245;81;21412;-65
2022/07/11 10:42:10;;;;;;;2.15;1.00;;;;;;;19.99;41.44;95682.36;1764146;81;21040;-65
2022/07/11 10:44:54;;;;;;;1.70;1.00;;;;;;;20.10;41.24;95676.79;1763378;81;21028;-65
2022/07/11 10:47:43;;;;;;;1.50;1.00;;;;;;;20.23;40.86;95690.38;1764331;81;21069;-65
2022/07/11 10:50:34;;;;;;;1.87;1.20;;;;;;;20.27;41.56;95689.27;1747073;81;21024;-65
2022/07/11 10:53:09;;;;;;;5.60;1.98;;;;;;;20.33;41.61;95675.99;1763917;81;21116;-65
2022/07/11 10:56:09;;;;;;;5.35;1.60;;;;;;;20.31;40.56;95684.63;1763378;81;21001;-65
2022/07/11 10:58:41;;;;;;;6.65;1.42;;;;;;;20.43;40.80;95685.25;1763974;81;21085;-65
2022/07/11 11:01:14;;;;;;;2.60;1.20;;;;;;;20.35;39.68;95674.58;1764574;81;21490;-65
2022/07/11 11:03:42;;;;;;;1.37;0.85;;;;;;;20.26;40.25;95679.52;1764082;81;21001;-65
2022/07/11 11:06:10;;;;;;;0.85;0.70;;;;;;;20.35;41.51;95682.14;1764255;81;21004;-65
2022/07/11 11:08:47;;;;;;;3.67;1.07;;;;;;;20.39;40.77;95677.01;1764295;81;21003;-65
2022/07/11 11:11:35;;;;;;;1.37;1.05;;;;;;;20.40;41.05;95676.05;1763981;81;20941;-65
2022/07/11 11:14:22;;;;;;;2.27;0.90;;;;;;;20.50;41.40;95681.76;1763782;81;21076;-65
2022/07/11 11:16:50;;;;;;;2.10;0.88;;;;;;;20.59;40.98;95683.96;1764226;81;20981;-65
2022/07/11 11:19:50;;;;;;;2.22;0.90;;;;;;;20.73;41.45;95681.81;1764000;81;20996;-65
2022/07/11 11:22:19;;;;;;;3.02;1.00;;;;;;;20.81;40.94;95684.06;1764309;81;21542;-65
2022/07/11 11:24:49;;;;;;;0.93;0.70;;;;;;;20.85;40.01;95675.75;1764038;81;21009;-65
2022/07/11 11:27:26;;;;;;;0.98;0.80;;;;;;;20.85;38.49;95681.60;1764232;81;21455;-65
2022/07/11 11:29:55;;;;;;;0.95;0.70;;;;;;;20.81;38.35;95688.94;1764305;81;21044;-65
2022/07/11 11:32:30;;;;;;;1.52;0.70;;;;;;;20.79;37.53;95684.62;1764069;81;21454;-65
2022/07/11 11:34:58;;;;;;;1.37;0.78;;;;;;;20.80;37.71;95692.59;1764101;81;21467;-65
2022/07/11 11:37:26;;;;;;;2.67;0.72;;;;;;;20.92;38.48;95689.20;1764185;81;21026;-64
2022/07/11 11:39:59;;;;;;;1.00;0.70;;;;;;;20.98;37.66;95692.00;1763836;81;21025;-65
2022/07/11 11:42:29;;;;;;;1.90;0.90;;;;;;;20.97;36.80;95691.62;1764223;81;20993;-65
2022/07/11 11:45:03;;;;;;;0.90;0.80;;;;;;;21.07;37.43;95694.16;1764254;81;21008;-65
2022/07/11 11:47:31;;;;;;;2.02;0.85;;;;;;;21.13;37.73;95689.76;1764150;81;21019;-65
2022/07/11 11:49:58;;;;;;;1.90;0.80;;;;;;;21.38;37.69;95686.52;1763947;81;21064;-64
2022/07/11 11:52:29;;;;;;;2.08;0.90;;;;;;;21.53;37.96;95676.68;1764077;81;21017;-65